createdAt,value
2023-02-25T00:02:03.167Z,17.40
2023-02-25T00:04:32.958Z,16.90
2023-02-25T00:07:22.976Z,16.20
2023-02-25T00:12:24.145Z,17.00
2023-02-25T00:14:52.174Z,17.80
2023-02-25T00:17:20.760Z,18.10
2023-02-25T00:19:50.277Z,15.90
2023-02-25T00:22:21.415Z,17.10
2023-02-25T00:24:53.676Z,17.40
2023-02-25T00:27:22.470Z,18.20
2023-02-25T00:29:54.434Z,16.80
2023-02-25T00:32:23.496Z,16.80
2023-02-25T00:34:52.131Z,18.80
2023-02-25T00:37:20.362Z,17.10
2023-02-25T00:39:48.661Z,19.90
2023-02-25T00:42:17.769Z,17.80
2023-02-25T00:44:47.233Z,18.40
2023-02-25T00:47:17.251Z,18.10
2023-02-25T00:49:47.812Z,18.00
2023-02-25T00:52:16.042Z,17.90
2023-02-25T00:54:44.020Z,18.60
2023-02-25T00:57:12.642Z,18.00
2023-02-25T00:59:41.326Z,17.60
2023-02-25T01:02:10.217Z,18.50
2023-02-25T01:04:38.742Z,17.90
2023-02-25T01:07:08.620Z,17.80
2023-02-25T01:09:37.096Z,17.90
2023-02-25T01:12:05.364Z,17.70
2023-02-25T01:14:33.883Z,17.20
2023-02-25T01:17:03.146Z,18.20
2023-02-25T01:19:34.051Z,18.20
2023-02-25T01:22:02.556Z,16.20
2023-02-25T01:24:33.263Z,17.10
2023-02-25T01:27:02.830Z,17.60
2023-02-25T01:29:35.572Z,18.10
2023-02-25T01:32:04.280Z,18.40
2023-02-25T01:34:33.312Z,18.00
2023-02-25T01:37:06.225Z,17.90
2023-02-25T01:39:37.734Z,16.60
2023-02-25T01:42:13.179Z,19.20
2023-02-25T01:45:12.344Z,18.60
2023-02-25T01:47:40.636Z,18.60
2023-02-25T01:50:10.248Z,19.20
2023-02-25T01:52:38.818Z,19.10
2023-02-25T01:55:09.692Z,20.20
2023-02-25T01:57:38.939Z,19.30
2023-02-25T02:00:12.608Z,18.20
2023-02-25T02:02:44.904Z,18.50
2023-02-25T02:05:13.414Z,18.80
2023-02-25T02:07:43.836Z,19.00
2023-02-25T02:10:12.627Z,20.00
2023-02-25T02:12:43.162Z,18.50
2023-02-25T02:15:13.871Z,20.00
2023-02-25T02:17:56.997Z,18.20
2023-02-25T02:20:44.239Z,20.00
2023-02-25T02:23:41.008Z,20.00
2023-02-25T02:26:37.968Z,19.40
2023-02-25T02:29:28.228Z,19.60
2023-02-25T02:32:15.893Z,19.40
2023-02-25T02:35:05.220Z,19.30
2023-02-25T02:37:44.806Z,19.70
2023-02-25T02:40:19.715Z,19.20
2023-02-25T02:42:51.440Z,18.10
2023-02-25T02:45:27.072Z,18.60
2023-02-25T02:47:59.287Z,21.40
2023-02-25T02:50:40.241Z,19.10
2023-02-25T02:53:16.442Z,20.30
2023-02-25T02:55:47.494Z,19.90
2023-02-25T02:58:23.312Z,19.00
2023-02-25T03:00:55.865Z,19.90
2023-02-25T03:03:36.474Z,22.00
2023-02-25T03:06:17.482Z,19.80
2023-02-25T03:08:59.606Z,20.20
2023-02-25T03:11:27.883Z,20.70
2023-02-25T03:13:59.789Z,19.70
2023-02-25T03:16:53.526Z,20.80
2023-02-25T03:19:30.173Z,19.90
2023-02-25T03:22:01.437Z,20.30
2023-02-25T03:25:02.761Z,22.50
2023-02-25T03:27:39.871Z,21.60
2023-02-25T03:30:13.155Z,20.20
2023-02-25T03:32:47.873Z,22.00
2023-02-25T03:35:19.426Z,22.30
2023-02-25T03:37:50.411Z,23.00
2023-02-25T03:40:19.887Z,22.50
2023-02-25T03:42:54.256Z,21.60
2023-02-25T03:45:22.452Z,23.50
2023-02-25T03:47:50.637Z,22.30
2023-02-25T03:50:28.816Z,23.60
2023-02-25T03:53:19.621Z,23.80
2023-02-25T03:55:52.350Z,22.30
2023-02-25T03:58:21.389Z,26.10
2023-02-25T04:00:58.932Z,24.80
2023-02-25T04:03:27.830Z,24.20
2023-02-25T04:05:56.217Z,24.60
2023-02-25T04:08:24.712Z,25.70
2023-02-25T04:10:52.866Z,25.00
2023-02-25T04:13:26.001Z,25.00
2023-02-25T04:15:54.428Z,25.00
2023-02-25T04:18:27.836Z,24.80
2023-02-25T04:20:56.668Z,25.90
2023-02-25T04:23:24.928Z,29.40
2023-02-25T04:25:53.570Z,27.40
2023-02-25T04:28:23.308Z,26.70
2023-02-25T04:30:51.531Z,27.50
2023-02-25T04:33:20.114Z,26.60
2023-02-25T04:35:49.723Z,26.40
2023-02-25T04:38:18.004Z,28.20
2023-02-25T04:40:47.435Z,29.60
2023-02-25T04:43:17.404Z,26.50
2023-02-25T04:45:47.050Z,25.80
2023-02-25T04:48:16.087Z,27.80
2023-02-25T04:50:44.584Z,27.90
2023-02-25T04:53:14.063Z,25.30
2023-02-25T04:55:42.539Z,29.10
2023-02-25T04:58:10.645Z,28.20
2023-02-25T05:00:40.643Z,26.80
2023-02-25T05:03:09.122Z,28.00
2023-02-25T05:05:37.877Z,29.20
2023-02-25T05:08:09.107Z,29.50
2023-02-25T05:10:38.016Z,26.70
2023-02-25T05:13:06.218Z,27.50
2023-02-25T05:15:37.186Z,27.90
2023-02-25T05:18:06.525Z,27.40
2023-02-25T05:20:34.972Z,28.20
2023-02-25T05:23:03.826Z,27.20
2023-02-25T05:25:33.861Z,28.10
2023-02-25T05:28:02.817Z,28.20
2023-02-25T05:30:31.397Z,28.20
2023-02-25T05:33:02.500Z,29.80
2023-02-25T05:35:32.653Z,27.90
2023-02-25T05:38:01.086Z,27.60
2023-02-25T05:40:29.269Z,29.00
2023-02-25T05:42:57.428Z,28.20
2023-02-25T05:45:25.765Z,27.80
2023-02-25T05:47:55.805Z,29.70
2023-02-25T05:50:24.317Z,27.90
2023-02-25T05:52:52.937Z,26.70
2023-02-25T05:55:21.556Z,27.60
2023-02-25T05:57:49.859Z,29.10
2023-02-25T06:00:21.573Z,28.90
2023-02-25T06:02:50.524Z,28.90
2023-02-25T06:05:19.030Z,30.20
2023-02-25T06:07:48.869Z,27.90
2023-02-25T06:10:18.210Z,28.60
2023-02-25T06:12:46.658Z,31.50
2023-02-25T06:15:15.823Z,27.00
2023-02-25T06:17:44.084Z,27.00
2023-02-25T06:20:16.611Z,28.60
2023-02-25T06:22:44.975Z,30.40
2023-02-25T06:25:13.121Z,29.20
2023-02-25T06:27:41.500Z,28.20
2023-02-25T06:30:12.260Z,31.00
2023-02-25T06:32:40.967Z,30.20
2023-02-25T06:35:09.871Z,27.80
2023-02-25T06:37:40.061Z,30.40
2023-02-25T06:40:09.706Z,29.10
2023-02-25T06:42:38.716Z,28.80
2023-02-25T06:45:09.493Z,27.20
2023-02-25T06:47:38.292Z,29.10
2023-02-25T06:50:07.473Z,29.80
2023-02-25T06:52:35.688Z,29.40
2023-02-25T06:55:07.058Z,30.10
2023-02-25T06:57:35.499Z,30.50
2023-02-25T07:00:05.820Z,29.90
2023-02-25T07:02:35.669Z,30.40
2023-02-25T07:05:06.232Z,30.50
2023-02-25T07:07:35.440Z,29.80
2023-02-25T07:10:04.165Z,28.70
2023-02-25T07:12:38.444Z,28.30
2023-02-25T07:15:07.986Z,30.50
2023-02-25T07:17:37.696Z,30.70
2023-02-25T07:20:09.439Z,31.40
2023-02-25T07:22:38.545Z,30.80
2023-02-25T07:25:08.750Z,29.30
2023-02-25T07:27:43.599Z,27.70
2023-02-25T07:30:18.417Z,28.50
2023-02-25T07:32:47.876Z,28.10
2023-02-25T07:35:23.097Z,28.80
2023-02-25T07:37:52.745Z,32.80
2023-02-25T07:40:22.796Z,28.40
2023-02-25T07:42:51.663Z,30.60
2023-02-25T07:47:56.319Z,28.50
2023-02-25T07:50:29.153Z,28.90
2023-02-25T07:52:57.328Z,28.30
2023-02-25T07:55:26.235Z,29.80
2023-02-25T07:57:56.131Z,27.80
2023-02-25T08:00:24.299Z,30.10
2023-02-25T08:02:53.620Z,31.60
2023-02-25T08:05:24.882Z,30.70
2023-02-25T08:07:56.626Z,29.10
2023-02-25T08:10:25.040Z,27.60
2023-02-25T08:12:59.200Z,30.70
2023-02-25T08:17:03.054Z,30.20
2023-02-25T08:19:31.997Z,30.70
2023-02-25T08:22:00.635Z,31.30
2023-02-25T08:24:29.849Z,32.90
2023-02-25T08:26:58.333Z,31.30
2023-02-25T08:29:26.233Z,31.20
2023-02-25T08:31:54.350Z,33.30
2023-02-25T08:34:22.559Z,31.10
2023-02-25T08:36:50.484Z,30.90
2023-02-25T08:39:18.537Z,31.50
2023-02-25T08:41:47.673Z,31.90
2023-02-25T08:44:15.664Z,30.40
2023-02-25T08:46:43.862Z,32.30
2023-02-25T08:49:12.055Z,32.40
2023-02-25T08:51:40.857Z,31.50
2023-02-25T08:54:12.427Z,29.10
2023-02-25T08:56:44.583Z,30.70
2023-02-25T08:59:15.148Z,32.90
2023-02-25T09:01:46.245Z,31.00
2023-02-25T09:04:19.846Z,30.70
2023-02-25T09:06:49.152Z,33.00
2023-02-25T09:09:17.915Z,30.50
2023-02-25T09:11:46.152Z,31.00
2023-02-25T09:14:16.649Z,31.70
2023-02-25T09:16:44.699Z,32.80
2023-02-25T09:19:15.673Z,32.20
2023-02-25T09:21:50.459Z,30.30
2023-02-25T09:24:19.788Z,30.50
2023-02-25T09:26:48.294Z,32.80
2023-02-25T09:29:17.356Z,35.00
2023-02-25T09:31:46.043Z,30.90
2023-02-25T09:34:15.851Z,31.10
2023-02-25T09:36:44.570Z,30.00
2023-02-25T09:39:13.418Z,32.20
2023-02-25T09:42:01.478Z,32.90
2023-02-25T09:44:36.710Z,30.10
2023-02-25T09:47:19.667Z,28.00
2023-02-25T09:49:56.580Z,29.60
2023-02-25T09:52:32.095Z,29.70
2023-02-25T09:55:16.686Z,28.00
2023-02-25T09:58:20.128Z,26.80
2023-02-25T10:00:55.592Z,23.90
2023-02-25T10:03:57.228Z,25.40
2023-02-25T10:06:39.216Z,25.10
2023-02-25T10:09:17.803Z,24.60
2023-02-25T10:11:54.269Z,23.90
2023-02-25T10:14:32.110Z,25.50
2023-02-25T10:17:18.438Z,24.50
2023-02-25T10:20:05.784Z,24.90
2023-02-25T10:23:16.330Z,23.40
2023-02-25T10:25:52.918Z,23.50
2023-02-25T10:28:21.709Z,23.60
2023-02-25T10:31:04.043Z,22.00
2023-02-25T10:33:37.962Z,22.40
2023-02-25T10:36:16.554Z,21.20
2023-02-25T10:38:47.101Z,20.80
2023-02-25T10:41:15.875Z,19.80
2023-02-25T10:43:45.456Z,19.70
2023-02-25T10:46:17.721Z,18.90
2023-02-25T10:49:00.736Z,20.50
2023-02-25T10:51:30.434Z,19.70
2023-02-25T10:53:58.492Z,19.20
2023-02-25T10:56:31.321Z,19.10
2023-02-25T10:59:19.992Z,18.50
2023-02-25T11:01:50.784Z,17.40
2023-02-25T11:04:23.727Z,17.60
2023-02-25T11:06:53.302Z,17.40
2023-02-25T11:09:21.298Z,18.00
2023-02-25T11:11:56.364Z,19.30
2023-02-25T11:14:28.753Z,18.80
2023-02-25T11:17:16.254Z,19.00
2023-02-25T11:19:58.447Z,17.80
2023-02-25T11:22:40.052Z,19.00
2023-02-25T11:25:15.808Z,17.80
2023-02-25T11:27:45.175Z,17.90
2023-02-25T11:30:25.874Z,18.80
2023-02-25T11:32:55.249Z,18.00
2023-02-25T11:35:30.032Z,19.10
2023-02-25T11:37:59.185Z,17.30
2023-02-25T11:40:34.009Z,18.10
2023-02-25T11:43:33.559Z,18.70
2023-02-25T11:46:17.709Z,18.60
2023-02-25T11:48:51.142Z,19.10
2023-02-25T11:51:28.417Z,19.70
2023-02-25T11:54:03.100Z,18.10
2023-02-25T11:56:34.633Z,17.10
2023-02-25T11:59:16.890Z,17.90
2023-02-25T12:02:03.505Z,18.60
2023-02-25T12:05:00.605Z,18.70
2023-02-25T12:07:35.790Z,21.00
2023-02-25T12:10:41.575Z,18.90
2023-02-25T12:13:24.935Z,17.80
2023-02-25T12:16:29.986Z,18.80
2023-02-25T12:19:29.355Z,17.40
2023-02-25T12:22:34.623Z,19.50
2023-02-25T12:25:05.542Z,19.10
2023-02-25T12:28:08.448Z,18.60
2023-02-25T12:31:01.675Z,19.00
2023-02-25T12:33:57.777Z,20.30
2023-02-25T12:36:34.103Z,20.10
2023-02-25T12:39:06.141Z,19.10
2023-02-25T12:41:58.779Z,19.40
2023-02-25T12:44:27.765Z,19.20
2023-02-25T12:47:05.101Z,17.80
2023-02-25T12:50:16.345Z,22.10
2023-02-25T12:53:03.553Z,20.80
2023-02-25T12:56:00.351Z,18.90
2023-02-25T12:58:56.452Z,19.80
2023-02-25T13:01:41.725Z,22.70
2023-02-25T13:04:31.623Z,22.00
2023-02-25T13:07:14.831Z,20.20
2023-02-25T13:09:50.999Z,19.50
2023-02-25T13:12:28.529Z,19.50
2023-02-25T13:15:12.852Z,22.40
2023-02-25T13:18:07.209Z,21.30
2023-02-25T13:21:17.210Z,20.50
2023-02-25T13:24:11.139Z,20.80
2023-02-25T13:26:55.155Z,21.40
2023-02-25T13:29:55.345Z,23.00
2023-02-25T13:32:29.190Z,22.20
2023-02-25T13:35:09.867Z,19.80
2023-02-25T13:37:49.971Z,20.70
2023-02-25T13:40:40.171Z,23.20
2023-02-25T13:43:34.169Z,22.10
2023-02-25T13:46:05.474Z,20.00
2023-02-25T13:48:39.291Z,20.70
2023-02-25T13:51:42.234Z,21.00
2023-02-25T13:54:22.761Z,22.20
2023-02-25T13:57:05.706Z,20.90
2023-02-25T13:59:44.030Z,22.40
2023-02-25T14:02:41.841Z,21.50
2023-02-25T14:05:31.482Z,21.40
2023-02-25T14:08:32.840Z,21.50
2023-02-25T14:11:19.867Z,20.40
2023-02-25T14:14:06.431Z,19.90
2023-02-25T14:16:42.866Z,20.40
2023-02-25T14:19:42.301Z,19.70
2023-02-25T14:22:36.187Z,20.90
2023-02-25T14:25:28.649Z,18.60
2023-02-25T14:28:22.904Z,19.00
2023-02-25T14:31:10.367Z,21.50
2023-02-25T14:34:11.969Z,19.60
2023-02-25T14:36:47.465Z,19.70
2023-02-25T14:39:41.309Z,20.30
2023-02-25T14:42:21.947Z,21.40
2023-02-25T14:45:05.682Z,21.50
2023-02-25T14:47:48.056Z,20.50
2023-02-25T14:50:52.316Z,20.20
2023-02-25T14:53:58.456Z,21.80
2023-02-25T14:56:46.330Z,21.30
2023-02-25T14:59:52.136Z,19.50
2023-02-25T15:02:35.488Z,20.80
2023-02-25T15:05:12.925Z,20.40
2023-02-25T15:08:02.695Z,21.70
2023-02-25T15:10:41.709Z,21.50
2023-02-25T15:13:29.499Z,19.40
2023-02-25T15:16:20.920Z,20.10
2023-02-25T15:18:55.467Z,20.20
2023-02-25T15:21:32.421Z,23.30
2023-02-25T15:24:01.127Z,20.60
2023-02-25T15:26:41.403Z,21.40
2023-02-25T15:29:28.281Z,21.60
2023-02-25T15:32:25.058Z,23.40
2023-02-25T15:34:56.358Z,19.30
2023-02-25T15:37:31.735Z,21.80
2023-02-25T15:40:16.141Z,21.60
2023-02-25T15:42:46.525Z,22.00
2023-02-25T15:45:27.317Z,19.00
2023-02-25T15:48:08.087Z,19.60
2023-02-25T15:50:42.385Z,20.10
2023-02-25T15:53:23.579Z,20.20
2023-02-25T15:56:07.393Z,23.00
2023-02-25T16:01:29.639Z,18.20
2023-02-25T16:06:33.375Z,7.90
2023-02-25T16:09:18.027Z,5.70
2023-02-25T16:11:53.714Z,4.40
2023-02-25T16:14:37.754Z,3.20
2023-02-25T16:17:11.717Z,4.30
2023-02-25T16:19:43.477Z,3.60
2023-02-25T16:22:16.414Z,3.40
2023-02-25T16:24:50.241Z,3.40
2023-02-25T16:27:35.108Z,3.20
2023-02-25T16:30:12.311Z,3.90
2023-02-25T16:33:20.693Z,3.80
2023-02-25T16:35:59.943Z,2.80
2023-02-25T16:38:56.325Z,3.10
2023-02-25T16:41:33.326Z,2.70
2023-02-25T16:44:07.100Z,2.00
2023-02-25T16:46:37.528Z,2.20
2023-02-25T16:49:11.337Z,2.70
2023-02-25T16:54:15.440Z,2.40
2023-02-25T16:56:46.491Z,2.50
2023-02-25T16:59:14.613Z,2.60
2023-02-25T17:01:50.481Z,2.50
2023-02-25T17:04:24.817Z,2.20
2023-02-25T17:07:07.630Z,2.70
2023-02-25T17:09:36.382Z,2.90
2023-02-25T17:12:07.068Z,2.70
2023-02-25T17:14:35.595Z,2.30
2023-02-25T17:17:03.944Z,2.60
2023-02-25T17:19:36.689Z,2.70
2023-02-25T17:22:05.410Z,1.90
2023-02-25T17:24:33.666Z,2.50
2023-02-25T17:27:03.155Z,1.80
2023-02-25T17:29:35.470Z,2.00
2023-02-25T17:32:25.252Z,2.00
2023-02-25T17:34:59.858Z,1.80
2023-02-25T17:37:29.432Z,2.00
2023-02-25T17:39:57.571Z,2.40
2023-02-25T17:42:33.097Z,2.30
2023-02-25T17:45:02.138Z,1.70
2023-02-25T17:47:33.933Z,1.90
2023-02-25T17:50:25.695Z,1.70
2023-02-25T17:52:58.479Z,2.00
2023-02-25T17:55:28.729Z,1.90
2023-02-25T17:57:58.607Z,2.00
2023-02-25T18:00:29.643Z,1.90
2023-02-25T18:03:17.987Z,2.20
2023-02-25T18:05:53.654Z,2.40
2023-02-25T18:08:24.260Z,2.80
2023-02-25T18:11:02.396Z,2.50
2023-02-25T18:13:36.228Z,2.50
2023-02-25T18:16:32.292Z,2.30
2023-02-25T18:19:24.987Z,2.40
2023-02-25T18:21:53.428Z,2.70
2023-02-25T18:24:35.917Z,1.90
2023-02-25T18:27:07.570Z,1.80
2023-02-25T18:29:35.520Z,2.00
2023-02-25T18:32:05.280Z,2.10
2023-02-25T18:34:37.177Z,1.80
2023-02-25T18:37:14.861Z,2.00
2023-02-25T18:39:47.486Z,2.40
2023-02-25T18:42:18.673Z,2.00
2023-02-25T18:44:47.437Z,1.90
2023-02-25T18:47:16.887Z,2.40
2023-02-25T18:49:45.491Z,2.00
2023-02-25T18:52:22.124Z,2.10
2023-02-25T18:54:55.182Z,2.20
2023-02-25T18:57:27.142Z,2.60
2023-02-25T18:59:55.617Z,2.60
2023-02-25T19:02:35.199Z,2.10
2023-02-25T19:05:03.927Z,3.30
2023-02-25T19:07:34.569Z,2.70
2023-02-25T19:10:03.656Z,4.00
2023-02-25T19:12:33.894Z,3.80
2023-02-25T19:15:07.350Z,3.40
2023-02-25T19:17:37.370Z,3.30
2023-02-25T19:20:13.840Z,3.60
2023-02-25T19:22:50.532Z,4.50
2023-02-25T19:25:22.643Z,5.70
2023-02-25T19:27:52.424Z,4.50
2023-02-25T19:30:22.738Z,5.60
2023-02-25T19:33:04.333Z,5.10
2023-02-25T19:35:38.971Z,5.10
2023-02-25T19:38:20.147Z,5.40
2023-02-25T19:40:51.234Z,5.10
2023-02-25T19:43:19.414Z,5.20
2023-02-25T19:45:47.979Z,5.90
2023-02-25T19:48:16.971Z,5.90
2023-02-25T19:50:45.384Z,5.90
2023-02-25T19:53:14.543Z,5.70
2023-02-25T19:55:43.951Z,5.40
2023-02-25T19:58:12.255Z,5.90
2023-02-25T20:00:46.408Z,6.30
2023-02-25T20:03:15.399Z,5.60
2023-02-25T20:05:45.000Z,5.20
2023-02-25T20:08:13.806Z,5.30
2023-02-25T20:13:28.174Z,6.30
2023-02-25T20:16:01.392Z,5.60
2023-02-25T20:18:30.300Z,5.40
2023-02-25T20:21:01.464Z,5.80
2023-02-25T20:23:30.274Z,6.10
2023-02-25T20:26:10.592Z,5.70
2023-02-25T20:28:40.400Z,6.00
2023-02-25T20:31:12.123Z,7.20
2023-02-25T20:34:54.768Z,6.50
2023-02-25T20:37:24.786Z,7.10
2023-02-25T20:39:54.341Z,6.60
2023-02-25T20:42:24.678Z,7.20
2023-02-25T20:44:53.333Z,6.30
2023-02-25T20:47:27.266Z,5.70
2023-02-25T20:49:56.141Z,6.50
2023-02-25T20:52:29.990Z,6.20
2023-02-25T20:55:02.834Z,7.20
2023-02-25T20:57:33.454Z,5.70
2023-02-25T21:00:03.029Z,6.40
2023-02-25T21:02:31.953Z,8.60
2023-02-25T21:05:03.091Z,8.60
2023-02-25T21:07:31.963Z,9.50
2023-02-25T21:10:00.394Z,11.40
2023-02-25T21:12:29.290Z,9.10
2023-02-25T21:14:57.404Z,9.70
2023-02-25T21:17:26.258Z,10.50
2023-02-25T21:19:54.351Z,10.60
2023-02-25T21:22:26.254Z,10.50
2023-02-25T21:24:54.923Z,10.90
2023-02-25T21:27:24.203Z,10.00
2023-02-25T21:29:53.919Z,11.40
2023-02-25T21:32:22.738Z,11.30
2023-02-25T21:34:51.341Z,9.50
2023-02-25T21:37:19.886Z,9.30
2023-02-25T21:39:48.358Z,7.70
2023-02-25T21:42:22.891Z,8.90
2023-02-25T21:44:52.308Z,8.80
2023-02-25T21:47:25.927Z,8.70
2023-02-25T21:49:56.109Z,8.30
2023-02-25T21:52:26.212Z,6.90
2023-02-25T21:54:56.745Z,6.30
2023-02-25T21:57:27.764Z,7.50
2023-02-25T22:00:00.321Z,6.80
2023-02-25T22:02:30.482Z,8.00
2023-02-25T22:05:01.078Z,6.90
2023-02-25T22:07:30.735Z,7.20
2023-02-25T22:09:59.205Z,7.00
2023-02-25T22:12:27.694Z,7.50
2023-02-25T22:15:00.799Z,6.90
2023-02-25T22:17:29.639Z,7.10
2023-02-25T22:19:58.639Z,6.50
2023-02-25T22:22:26.819Z,6.90
2023-02-25T22:24:56.031Z,6.90
2023-02-25T22:27:24.280Z,7.10
2023-02-25T22:29:52.352Z,7.30
2023-02-25T22:32:21.399Z,6.20
2023-02-25T22:34:51.556Z,6.90
2023-02-25T22:37:19.755Z,7.90
2023-02-25T22:39:48.478Z,6.60
2023-02-25T22:42:16.742Z,6.90
2023-02-25T22:44:44.836Z,6.40
2023-02-25T22:47:13.158Z,7.30
2023-02-25T22:49:41.620Z,7.10
2023-02-25T22:52:09.551Z,6.20
2023-02-25T22:54:37.857Z,7.80
2023-02-25T22:57:06.218Z,7.40
2023-02-25T22:59:34.184Z,6.90
2023-02-25T23:02:03.154Z,7.10
2023-02-25T23:04:33.833Z,7.50
2023-02-25T23:07:02.331Z,7.20
2023-02-25T23:09:30.736Z,6.30
2023-02-25T23:12:02.987Z,6.20
2023-02-25T23:14:31.252Z,6.80
2023-02-25T23:16:59.791Z,6.80
2023-02-25T23:19:31.469Z,5.90
2023-02-25T23:21:59.850Z,6.00
2023-02-25T23:24:27.981Z,6.30
2023-02-25T23:27:01.234Z,7.00
2023-02-25T23:29:29.570Z,5.40
2023-02-25T23:31:58.280Z,6.40
2023-02-25T23:34:26.484Z,5.80
2023-02-25T23:36:55.923Z,6.20
2023-02-25T23:39:25.755Z,5.10
2023-02-25T23:41:53.876Z,6.40
2023-02-25T23:44:23.472Z,6.30
2023-02-25T23:46:55.215Z,6.40
2023-02-25T23:49:23.558Z,6.60
2023-02-25T23:51:52.663Z,6.50
2023-02-25T23:54:21.766Z,6.60
2023-02-25T23:56:51.434Z,6.90
2023-02-25T23:59:22.695Z,7.10
